createdAt,value
2018-02-25T00:00:47.938Z,58.76
2018-02-25T00:03:16.360Z,58.69
2018-02-25T00:05:44.976Z,58.77
2018-02-25T00:08:13.389Z,58.80
2018-02-25T00:10:41.805Z,59.18
2018-02-25T00:13:10.269Z,59.39
2018-02-25T00:15:38.691Z,59.43
2018-02-25T00:18:07.123Z,59.62
2018-02-25T00:20:35.604Z,59.45
2018-02-25T00:23:04.038Z,59.70
2018-02-25T00:25:32.468Z,59.93
2018-02-25T00:28:00.956Z,60.04
2018-02-25T00:30:29.370Z,60.34
2018-02-25T00:32:57.796Z,60.49
2018-02-25T00:35:26.255Z,60.91
2018-02-25T00:37:54.673Z,60.89
2018-02-25T00:40:23.088Z,60.89
2018-02-25T00:42:51.533Z,60.80
2018-02-25T00:45:19.976Z,61.06
2018-02-25T00:47:48.390Z,60.98
2018-02-25T00:50:16.852Z,61.32
2018-02-25T00:52:45.271Z,61.54
2018-02-25T00:55:13.690Z,61.55
2018-02-25T00:57:42.151Z,61.50
2018-02-25T01:00:10.582Z,61.45
2018-02-25T01:02:39.008Z,61.45
2018-02-25T01:05:07.491Z,62.10
2018-02-25T01:07:35.911Z,61.80
2018-02-25T01:10:04.346Z,62.14
2018-02-25T01:12:32.816Z,61.92
2018-02-25T01:15:01.270Z,62.04
2018-02-25T01:17:29.680Z,62.27
2018-02-25T01:19:58.146Z,62.24
2018-02-25T01:22:26.577Z,62.22
2018-02-25T01:24:54.982Z,62.38
2018-02-25T01:27:23.443Z,62.58
2018-02-25T01:29:51.858Z,62.70
2018-02-25T01:32:20.280Z,62.69
2018-02-25T01:34:48.742Z,62.55
2018-02-25T01:37:17.168Z,62.76
2018-02-25T01:39:45.598Z,63.07
2018-02-25T01:42:14.075Z,63.27
2018-02-25T01:44:42.491Z,63.23
2018-02-25T01:47:10.906Z,63.26
2018-02-25T01:49:39.384Z,63.76
2018-02-25T01:52:07.816Z,63.63
2018-02-25T01:54:36.233Z,63.78
2018-02-25T01:57:04.688Z,63.68
2018-02-25T01:59:33.116Z,63.79
2018-02-25T02:02:01.548Z,63.80
2018-02-25T02:04:30.047Z,63.69
2018-02-25T02:06:58.498Z,63.51
2018-02-25T02:09:26.923Z,63.79
2018-02-25T02:11:55.378Z,63.83
2018-02-25T02:14:23.809Z,64.05
2018-02-25T02:16:52.239Z,63.69
2018-02-25T02:19:20.721Z,63.80
2018-02-25T02:21:49.164Z,63.63
2018-02-25T02:24:17.586Z,63.59
2018-02-25T02:26:46.081Z,63.78
2018-02-25T02:29:14.497Z,63.57
2018-02-25T02:31:42.976Z,63.73
2018-02-25T02:34:11.464Z,63.78
2018-02-25T02:36:39.894Z,63.64
2018-02-25T02:39:08.325Z,63.51
2018-02-25T02:41:36.795Z,63.74
2018-02-25T02:44:05.253Z,64.03
2018-02-25T02:46:33.675Z,63.98
2018-02-25T02:49:02.135Z,64.14
2018-02-25T02:51:30.573Z,64.15
2018-02-25T02:53:59.012Z,64.19
2018-02-25T02:56:27.485Z,64.12
2018-02-25T02:58:55.910Z,64.31
2018-02-25T03:01:24.334Z,63.98
2018-02-25T03:03:52.824Z,64.02
2018-02-25T03:06:21.251Z,64.11
2018-02-25T03:08:49.667Z,64.27
2018-02-25T03:11:18.140Z,64.25
2018-02-25T03:13:46.578Z,64.18
2018-02-25T03:16:14.995Z,64.19
2018-02-25T03:18:43.459Z,64.07
2018-02-25T03:21:11.884Z,64.10
2018-02-25T03:23:40.320Z,64.00
2018-02-25T03:26:08.773Z,64.04
2018-02-25T03:28:37.204Z,64.12
2018-02-25T03:31:05.623Z,63.88
2018-02-25T03:33:34.114Z,63.82
2018-02-25T03:36:02.535Z,64.26
2018-02-25T03:38:30.954Z,64.25
2018-02-25T03:40:59.406Z,64.11
2018-02-25T03:43:27.837Z,63.93
2018-02-25T03:45:56.253Z,63.68
2018-02-25T03:48:24.701Z,63.70
2018-02-25T03:50:53.119Z,63.53
2018-02-25T03:53:21.558Z,63.98
2018-02-25T03:55:50.394Z,63.87
2018-02-25T03:58:18.818Z,63.72
2018-02-25T04:00:47.231Z,63.88
2018-02-25T04:03:15.964Z,63.64
2018-02-25T04:05:44.398Z,63.53
2018-02-25T04:08:12.834Z,63.78
2018-02-25T04:10:41.287Z,63.53
2018-02-25T04:13:09.710Z,63.54
2018-02-25T04:15:38.140Z,63.54
2018-02-25T04:18:06.617Z,63.83
2018-02-25T04:20:35.049Z,63.69
2018-02-25T04:23:03.483Z,63.42
2018-02-25T04:25:31.954Z,63.58
2018-02-25T04:28:00.395Z,63.17
2018-02-25T04:30:28.856Z,63.33
2018-02-25T04:32:57.318Z,63.33
2018-02-25T04:35:25.749Z,63.38
2018-02-25T04:37:54.180Z,63.38
2018-02-25T04:40:22.654Z,63.38
2018-02-25T04:42:51.071Z,63.50
2018-02-25T04:45:19.511Z,63.40
2018-02-25T04:47:47.961Z,63.36
2018-02-25T04:50:16.393Z,63.55
2018-02-25T04:52:44.811Z,63.75
2018-02-25T04:55:13.276Z,63.56
2018-02-25T04:57:41.715Z,63.18
2018-02-25T05:00:10.152Z,63.26
2018-02-25T05:02:38.625Z,63.69
2018-02-25T05:05:07.064Z,63.45
2018-02-25T05:07:35.498Z,63.54
2018-02-25T05:10:04.005Z,63.70
2018-02-25T05:12:32.441Z,63.63
2018-02-25T05:15:00.878Z,63.75
2018-02-25T05:17:29.695Z,63.79
2018-02-25T05:19:58.126Z,63.59
2018-02-25T05:22:26.550Z,63.80
2018-02-25T05:24:55.042Z,64.01
2018-02-25T05:27:23.455Z,64.13
2018-02-25T05:29:51.882Z,64.21
2018-02-25T05:32:20.371Z,64.37
2018-02-25T05:34:48.801Z,64.73
2018-02-25T05:37:17.236Z,64.70
2018-02-25T05:39:45.717Z,65.27
2018-02-25T05:42:14.134Z,65.30
2018-02-25T05:44:42.565Z,65.76
2018-02-25T05:47:11.021Z,65.58
2018-02-25T05:49:39.438Z,65.71
2018-02-25T05:52:07.862Z,65.72
2018-02-25T05:54:36.319Z,65.61
2018-02-25T05:57:04.748Z,65.54
2018-02-25T05:59:33.166Z,65.58
2018-02-25T06:02:01.636Z,65.71
2018-02-25T06:04:30.081Z,65.44
2018-02-25T06:06:58.521Z,65.28
2018-02-25T06:09:27.022Z,65.49
2018-02-25T06:11:55.452Z,65.47
2018-02-25T06:14:23.870Z,65.44
2018-02-25T06:16:52.319Z,65.22
2018-02-25T06:19:20.745Z,65.33
2018-02-25T06:21:49.157Z,65.48
2018-02-25T06:24:17.657Z,65.54
2018-02-25T06:26:46.113Z,65.62
2018-02-25T06:29:14.591Z,65.48
2018-02-25T06:31:43.092Z,65.65
2018-02-25T06:34:11.523Z,65.81
2018-02-25T06:36:39.934Z,65.84
2018-02-25T06:39:08.400Z,66.14
2018-02-25T06:41:36.821Z,66.04
2018-02-25T06:44:05.250Z,66.05
2018-02-25T06:46:33.754Z,66.08
2018-02-25T06:49:02.184Z,66.13
2018-02-25T06:51:30.602Z,65.99
2018-02-25T06:53:59.092Z,66.22
2018-02-25T06:56:27.528Z,66.12
2018-02-25T06:58:55.968Z,66.07
2018-02-25T07:01:24.430Z,65.81
2018-02-25T07:03:52.906Z,66.12
2018-02-25T07:06:21.330Z,65.91
2018-02-25T07:08:49.801Z,66.35
2018-02-25T07:11:18.250Z,65.83
2018-02-25T07:13:46.669Z,66.06
2018-02-25T07:16:15.132Z,65.51
2018-02-25T07:18:43.574Z,65.59
2018-02-25T07:21:11.998Z,64.98
2018-02-25T07:23:40.485Z,65.06
2018-02-25T07:26:08.919Z,64.45
2018-02-25T07:28:37.388Z,64.87
2018-02-25T07:31:05.862Z,64.30
2018-02-25T07:33:34.297Z,63.73
2018-02-25T07:36:02.743Z,63.57
2018-02-25T07:38:31.222Z,62.98
2018-02-25T07:40:59.656Z,62.86
2018-02-25T07:43:28.105Z,62.91
2018-02-25T07:45:56.602Z,62.16
2018-02-25T07:48:25.033Z,61.93
2018-02-25T07:50:53.458Z,62.25
2018-02-25T07:53:21.935Z,60.87
2018-02-25T07:55:50.364Z,61.20
2018-02-25T07:58:18.800Z,61.06
2018-02-25T08:00:47.279Z,61.24
2018-02-25T08:03:15.695Z,60.60
2018-02-25T08:05:44.110Z,60.11
2018-02-25T08:08:12.581Z,59.30
2018-02-25T08:10:41.007Z,59.79
2018-02-25T08:13:09.441Z,59.41
2018-02-25T08:15:37.899Z,58.61
2018-02-25T08:18:06.341Z,57.92
2018-02-25T08:20:34.780Z,56.19
2018-02-25T08:23:03.249Z,56.72
2018-02-25T08:25:31.680Z,57.17
2018-02-25T08:28:00.096Z,57.49
2018-02-25T08:30:28.577Z,57.16
2018-02-25T08:32:57.003Z,56.33
2018-02-25T08:35:25.482Z,55.13
2018-02-25T08:37:53.964Z,55.18
2018-02-25T08:40:22.401Z,54.32
2018-02-25T08:42:50.814Z,53.84
2018-02-25T08:45:19.275Z,53.88
2018-02-25T08:47:47.704Z,53.89
2018-02-25T08:50:16.141Z,54.26
2018-02-25T08:52:44.617Z,52.94
2018-02-25T08:55:13.030Z,53.24
2018-02-25T08:57:41.466Z,53.92
2018-02-25T09:00:09.952Z,53.16
2018-02-25T09:02:38.358Z,53.01
2018-02-25T09:05:06.765Z,53.08
2018-02-25T09:07:35.235Z,52.94
2018-02-25T09:10:03.693Z,53.14
2018-02-25T09:12:32.120Z,50.43
2018-02-25T09:15:00.581Z,51.29
2018-02-25T09:17:28.994Z,50.66
2018-02-25T09:19:57.424Z,50.61
2018-02-25T09:22:25.888Z,50.68
2018-02-25T09:24:54.302Z,50.13
2018-02-25T09:27:22.726Z,50.10
2018-02-25T09:29:51.175Z,50.25
2018-02-25T09:32:19.590Z,50.20
2018-02-25T09:34:48.013Z,50.71
2018-02-25T09:37:16.481Z,50.73
2018-02-25T09:39:44.905Z,49.38
2018-02-25T09:42:13.340Z,49.67
2018-02-25T09:44:41.804Z,49.33
2018-02-25T09:47:10.228Z,50.05
2018-02-25T09:49:38.637Z,49.86
2018-02-25T09:52:07.113Z,49.45
2018-02-25T09:54:35.541Z,48.81
2018-02-25T09:57:03.951Z,49.47
2018-02-25T09:59:32.403Z,48.93
2018-02-25T10:02:00.815Z,48.80
2018-02-25T10:04:29.229Z,48.88
2018-02-25T10:06:57.686Z,49.41
2018-02-25T10:09:26.120Z,50.22
2018-02-25T10:11:54.527Z,50.32
2018-02-25T10:14:23.004Z,50.19
2018-02-25T10:16:51.444Z,50.16
2018-02-25T10:19:19.854Z,49.59
2018-02-25T10:21:48.310Z,50.06
2018-02-25T10:24:16.728Z,50.40
2018-02-25T10:26:45.161Z,49.46
2018-02-25T10:29:13.631Z,49.50
2018-02-25T10:31:42.070Z,49.47
2018-02-25T10:34:10.490Z,49.23
2018-02-25T10:36:38.972Z,49.10
2018-02-25T10:39:07.385Z,49.69
2018-02-25T10:41:35.874Z,48.36
2018-02-25T10:44:04.353Z,49.50
2018-02-25T10:46:32.793Z,49.51
2018-02-25T10:49:01.234Z,49.50
2018-02-25T10:51:29.702Z,49.71
2018-02-25T10:53:58.111Z,50.11
2018-02-25T10:56:26.540Z,49.34
2018-02-25T10:58:55.006Z,48.76
2018-02-25T11:01:30.285Z,49.10
2018-02-25T11:03:58.754Z,48.67
2018-02-25T11:06:27.185Z,49.22
2018-02-25T11:08:55.618Z,49.05
2018-02-25T11:11:24.104Z,48.50
2018-02-25T11:13:52.547Z,48.15
2018-02-25T11:16:22.651Z,47.73
2018-02-25T11:18:51.134Z,48.57
2018-02-25T11:21:19.568Z,48.77
2018-02-25T11:23:47.993Z,48.89
2018-02-25T11:26:16.450Z,48.64
2018-02-25T11:28:44.872Z,49.15
2018-02-25T11:31:13.295Z,48.39
2018-02-25T11:33:41.754Z,48.38
2018-02-25T11:36:10.292Z,48.15
2018-02-25T11:38:38.729Z,48.53
2018-02-25T11:41:07.212Z,48.70
2018-02-25T11:43:35.649Z,49.06
2018-02-25T11:46:04.097Z,48.90
2018-02-25T11:48:32.598Z,49.11
2018-02-25T11:51:01.043Z,49.23
2018-02-25T11:53:29.484Z,49.36
2018-02-25T11:55:57.965Z,48.67
2018-02-25T11:58:26.383Z,48.00
2018-02-25T12:00:54.806Z,48.89
2018-02-25T12:03:23.275Z,49.11
2018-02-25T12:05:51.697Z,48.74
2018-02-25T12:08:20.135Z,48.90
2018-02-25T12:10:48.633Z,48.20
2018-02-25T12:13:17.065Z,48.25
2018-02-25T12:15:45.512Z,48.08
2018-02-25T12:18:13.982Z,47.55
2018-02-25T12:20:42.421Z,47.52
2018-02-25T12:23:10.866Z,47.92
2018-02-25T12:25:39.357Z,48.20
2018-02-25T12:28:07.779Z,47.33
2018-02-25T12:30:36.199Z,46.70
2018-02-25T12:33:04.681Z,46.85
2018-02-25T12:35:33.117Z,46.94
2018-02-25T12:38:01.526Z,46.44
2018-02-25T12:40:30.018Z,45.82
2018-02-25T12:42:58.433Z,45.65
2018-02-25T12:45:26.873Z,45.59
2018-02-25T12:47:55.333Z,45.42
2018-02-25T12:50:23.755Z,45.94
2018-02-25T12:52:52.195Z,45.77
2018-02-25T12:55:20.656Z,45.52
2018-02-25T12:57:49.105Z,45.08
2018-02-25T13:00:17.516Z,44.01
2018-02-25T13:02:45.965Z,45.14
2018-02-25T13:05:14.390Z,44.19
2018-02-25T13:07:42.821Z,43.71
2018-02-25T13:10:11.282Z,44.48
2018-02-25T13:12:39.729Z,44.75
2018-02-25T13:15:09.037Z,44.63
2018-02-25T13:17:37.506Z,45.00
2018-02-25T13:20:05.927Z,44.83
2018-02-25T13:22:34.352Z,45.33
2018-02-25T13:25:02.824Z,45.60
2018-02-25T13:27:31.259Z,45.77
2018-02-25T13:29:59.677Z,45.52
2018-02-25T13:32:28.142Z,46.02
2018-02-25T13:34:56.564Z,45.45
2018-02-25T13:37:24.992Z,44.51
2018-02-25T13:39:53.469Z,45.21
2018-02-25T13:42:21.909Z,44.58
2018-02-25T13:44:50.354Z,45.23
2018-02-25T13:47:18.855Z,44.55
2018-02-25T13:49:47.282Z,45.56
2018-02-25T13:52:15.703Z,45.11
2018-02-25T13:54:44.182Z,45.42
2018-02-25T13:57:12.616Z,45.59
2018-02-25T13:59:41.064Z,46.10
2018-02-25T14:02:09.564Z,46.22
2018-02-25T14:04:38.000Z,46.63
2018-02-25T14:07:06.433Z,46.46
2018-02-25T14:09:34.911Z,46.34
2018-02-25T14:12:03.352Z,46.94
2018-02-25T14:14:31.774Z,46.72
2018-02-25T14:17:00.254Z,47.64
2018-02-25T14:19:28.698Z,46.81
2018-02-25T14:21:57.145Z,46.87
2018-02-25T14:24:25.649Z,46.91
2018-02-25T14:26:54.085Z,47.74
2018-02-25T14:29:22.508Z,48.55
2018-02-25T14:31:50.982Z,48.91
2018-02-25T14:34:19.421Z,49.16
2018-02-25T14:36:47.839Z,49.33
2018-02-25T14:39:16.316Z,48.82
2018-02-25T14:41:44.756Z,50.04
2018-02-25T14:44:13.202Z,50.61
2018-02-25T14:46:41.674Z,50.91
2018-02-25T14:49:10.140Z,51.61
2018-02-25T14:51:38.544Z,51.33
2018-02-25T14:54:07.022Z,51.37
2018-02-25T14:56:35.434Z,51.34
2018-02-25T14:59:03.890Z,52.13
2018-02-25T15:01:32.366Z,53.27
2018-02-25T15:04:00.809Z,53.38
2018-02-25T15:06:29.245Z,54.07
2018-02-25T15:08:57.734Z,53.87
2018-02-25T15:11:26.146Z,53.60
2018-02-25T15:13:54.589Z,53.52
2018-02-25T15:16:23.064Z,53.86
2018-02-25T15:18:51.522Z,54.04
2018-02-25T15:21:19.962Z,54.10
2018-02-25T15:23:48.437Z,54.44
2018-02-25T15:26:16.872Z,54.93
2018-02-25T15:28:45.305Z,54.98
2018-02-25T15:31:13.782Z,54.75
2018-02-25T15:33:42.198Z,54.44
2018-02-25T15:36:10.623Z,54.73
2018-02-25T15:38:39.074Z,54.98
2018-02-25T15:41:07.495Z,54.83
2018-02-25T15:43:35.925Z,55.11
2018-02-25T15:46:04.452Z,55.63
2018-02-25T15:48:32.864Z,55.53
2018-02-25T15:51:01.329Z,55.87
2018-02-25T15:53:29.835Z,55.80
2018-02-25T15:55:58.248Z,55.58
2018-02-25T15:58:26.654Z,55.77
2018-02-25T16:00:55.098Z,56.00
2018-02-25T16:03:23.514Z,55.81
2018-02-25T16:05:51.929Z,56.23
2018-02-25T16:08:20.392Z,56.47
2018-02-25T16:10:48.821Z,56.69
2018-02-25T16:13:17.257Z,56.79
2018-02-25T16:15:45.727Z,57.06
2018-02-25T16:18:14.154Z,57.15
2018-02-25T16:20:42.586Z,57.11
2018-02-25T16:23:11.040Z,57.50
2018-02-25T16:25:39.470Z,57.13
2018-02-25T16:28:07.901Z,57.71
2018-02-25T16:30:36.574Z,58.13
2018-02-25T16:33:05.018Z,58.43
2018-02-25T16:35:33.444Z,58.74
2018-02-25T16:38:01.937Z,60.32
2018-02-25T16:40:30.367Z,61.72
2018-02-25T16:42:58.834Z,62.22
2018-02-25T16:45:27.287Z,62.61
2018-02-25T16:47:55.698Z,62.54
2018-02-25T16:50:24.137Z,62.80
2018-02-25T16:52:52.587Z,63.06
2018-02-25T16:55:21.009Z,63.38
2018-02-25T16:57:49.438Z,64.54
2018-02-25T17:00:17.897Z,64.93
2018-02-25T17:02:46.327Z,65.55
2018-02-25T17:05:14.761Z,65.46
2018-02-25T17:07:43.230Z,66.10
2018-02-25T17:10:11.665Z,66.44
2018-02-25T17:12:40.089Z,66.50
2018-02-25T17:15:08.564Z,66.68
2018-02-25T17:17:36.993Z,67.25
2018-02-25T17:20:05.410Z,67.91
2018-02-25T17:22:33.868Z,67.96
2018-02-25T17:25:02.278Z,68.52
2018-02-25T17:27:30.702Z,69.15
2018-02-25T17:29:59.179Z,69.33
2018-02-25T17:32:27.641Z,69.12
2018-02-25T17:34:56.054Z,69.46
2018-02-25T17:37:24.503Z,69.40
2018-02-25T17:39:52.928Z,69.43
2018-02-25T17:42:21.364Z,69.42
2018-02-25T17:44:49.849Z,69.66
2018-02-25T17:47:18.267Z,69.96
2018-02-25T17:49:46.679Z,69.89
2018-02-25T17:52:15.127Z,70.17
2018-02-25T17:54:43.552Z,69.65
2018-02-25T17:57:12.000Z,69.97
2018-02-25T17:59:40.477Z,70.34
2018-02-25T18:02:08.904Z,70.54
2018-02-25T18:04:37.330Z,70.47
2018-02-25T18:07:05.782Z,70.08
2018-02-25T18:09:34.194Z,70.21
2018-02-25T18:12:02.617Z,70.18
2018-02-25T18:14:31.080Z,70.04
2018-02-25T18:16:59.503Z,70.06
2018-02-25T18:19:27.962Z,70.39
2018-02-25T18:21:56.408Z,70.08
2018-02-25T18:24:24.834Z,70.20
2018-02-25T18:26:53.288Z,70.03
2018-02-25T18:29:21.745Z,70.36
2018-02-25T18:31:50.160Z,70.54
2018-02-25T18:34:18.571Z,70.46
2018-02-25T18:36:47.048Z,70.49
2018-02-25T18:39:15.483Z,70.47
2018-02-25T18:41:43.897Z,70.72
2018-02-25T18:44:12.358Z,70.78
2018-02-25T18:46:40.789Z,71.21
2018-02-25T18:49:09.219Z,71.12
2018-02-25T18:51:37.662Z,70.73
2018-02-25T18:54:06.067Z,70.67
2018-02-25T18:56:34.489Z,70.53
2018-02-25T18:59:02.987Z,70.43
2018-02-25T19:01:31.455Z,70.33
2018-02-25T19:03:59.877Z,70.37
2018-02-25T19:06:28.347Z,70.49
2018-02-25T19:08:56.775Z,70.31
2018-02-25T19:11:25.205Z,70.69
2018-02-25T19:13:53.654Z,70.88
2018-02-25T19:16:22.076Z,70.96
2018-02-25T19:18:50.554Z,70.78
2018-02-25T19:21:18.998Z,71.11
2018-02-25T19:23:47.433Z,71.24
2018-02-25T19:26:15.847Z,71.73
2018-02-25T19:28:44.312Z,71.73
2018-02-25T19:31:12.738Z,71.49
2018-02-25T19:33:41.167Z,71.94
2018-02-25T19:36:15.249Z,71.93
2018-02-25T19:41:53.492Z,72.78
2018-02-25T19:44:21.896Z,72.65
2018-02-25T19:46:50.321Z,72.93
2018-02-25T19:49:18.781Z,72.70
2018-02-25T19:51:47.204Z,72.85
2018-02-25T19:54:15.614Z,72.70
2018-02-25T19:56:44.097Z,72.79
2018-02-25T19:59:12.512Z,73.03
2018-02-25T20:01:40.923Z,73.29
2018-02-25T20:04:09.398Z,73.35
2018-02-25T20:06:37.806Z,73.21
2018-02-25T20:09:06.215Z,73.62
2018-02-25T20:11:34.668Z,73.91
2018-02-25T20:14:03.074Z,74.24
2018-02-25T20:16:31.487Z,74.39
2018-02-25T20:18:59.968Z,74.21
2018-02-25T20:21:28.378Z,74.28
2018-02-25T20:23:56.790Z,73.95
2018-02-25T20:26:25.260Z,74.30
2018-02-25T20:28:53.670Z,73.92
2018-02-25T20:31:22.074Z,74.26
2018-02-25T20:33:50.536Z,74.18
2018-02-25T20:36:18.943Z,74.34
2018-02-25T20:38:47.354Z,73.99
2018-02-25T20:41:15.821Z,74.49
2018-02-25T20:43:44.236Z,74.83
2018-02-25T20:46:12.763Z,75.24
2018-02-25T20:48:41.278Z,74.88
2018-02-25T20:51:09.712Z,75.20
2018-02-25T20:53:38.133Z,75.22
2018-02-25T20:56:06.578Z,75.17
2018-02-25T20:58:35.010Z,75.62
2018-02-25T21:01:03.445Z,75.66
2018-02-25T21:03:31.903Z,76.63
2018-02-25T21:06:00.329Z,76.00
2018-02-25T21:08:28.738Z,76.36
2018-02-25T21:10:57.189Z,76.91
2018-02-25T21:13:25.606Z,77.48
2018-02-25T21:15:54.034Z,77.83
2018-02-25T21:18:22.502Z,78.45
2018-02-25T21:20:50.914Z,78.34
2018-02-25T21:23:19.340Z,78.34
2018-02-25T21:25:47.793Z,78.86
2018-02-25T21:28:16.210Z,79.03
2018-02-25T21:30:44.661Z,78.92
2018-02-25T21:33:13.128Z,79.00
2018-02-25T21:35:41.557Z,79.50
2018-02-25T21:38:09.970Z,79.71
2018-02-25T21:40:38.439Z,79.85
2018-02-25T21:43:06.864Z,78.73
2018-02-25T21:45:35.300Z,78.42
2018-02-25T21:48:03.757Z,77.46
2018-02-25T21:50:32.189Z,77.58
2018-02-25T21:53:00.617Z,78.23
2018-02-25T21:55:29.087Z,77.86
2018-02-25T21:58:03.077Z,78.92
2018-02-25T22:00:37.079Z,78.76
2018-02-25T22:03:10.932Z,79.34
2018-02-25T22:05:39.416Z,79.26
2018-02-25T22:08:07.835Z,79.48
2018-02-25T22:10:36.240Z,79.87
2018-02-25T22:13:04.698Z,79.47
2018-02-25T22:15:33.125Z,79.69
2018-02-25T22:18:01.560Z,79.19
2018-02-25T22:20:30.030Z,79.30
2018-02-25T22:22:58.441Z,79.19
2018-02-25T22:25:26.860Z,79.07
2018-02-25T22:27:55.317Z,78.72
2018-02-25T22:30:23.741Z,79.34
2018-02-25T22:32:52.176Z,79.49
2018-02-25T22:35:20.652Z,79.98
2018-02-25T22:37:49.074Z,80.05
2018-02-25T22:40:17.481Z,79.97
2018-02-25T22:42:45.949Z,79.61
2018-02-25T22:45:14.376Z,79.61
2018-02-25T22:47:42.812Z,79.55
2018-02-25T22:50:11.262Z,79.23
2018-02-25T22:52:39.678Z,79.42
2018-02-25T22:55:08.112Z,79.08
2018-02-25T22:57:36.589Z,79.00
2018-02-25T23:00:05.049Z,79.04
2018-02-25T23:02:33.462Z,79.12
2018-02-25T23:05:02.026Z,79.21
2018-02-25T23:07:30.437Z,79.60
2018-02-25T23:09:58.874Z,79.53
2018-02-25T23:12:27.341Z,79.60
2018-02-25T23:14:55.768Z,79.97
2018-02-25T23:17:24.200Z,79.88
2018-02-25T23:19:52.694Z,79.49
2018-02-25T23:22:21.110Z,79.25
2018-02-25T23:24:49.537Z,79.29
2018-02-25T23:27:18.014Z,79.58
2018-02-25T23:29:46.422Z,79.16
2018-02-25T23:32:14.845Z,79.22
2018-02-25T23:34:43.313Z,79.19
2018-02-25T23:37:11.740Z,79.40
2018-02-25T23:39:40.178Z,79.46
2018-02-25T23:42:08.630Z,79.13
2018-02-25T23:44:37.039Z,79.29
2018-02-25T23:47:05.459Z,79.45
2018-02-25T23:49:33.929Z,79.43
2018-02-25T23:52:02.364Z,79.31
2018-02-25T23:54:30.779Z,79.80
2018-02-25T23:56:59.265Z,79.97
2018-02-25T23:59:27.705Z,80.30
